Weather History for Salem, IL

Change the Weather History Date:

Tuesday, February 21, 2012

  Actual Average Record
Temperature  
Mean Temperature 46 °F -  
Max Temperature 50 °F 49 °F 70 °F (1983)
Min Temperature 41 °F 29 °F 2 °F (1963)
Degree Days  
Heating Degree Days 20    
Moisture  
Dew Point 32 °F    
Average Humidity 60    
Maximum Humidity 68    
Minimum Humidity 49    
Precipitation  
Precipitation 0.00 in - - ()
Sea Level Pressure  
Sea Level Pressure 29.82 in    
Wind  
Wind Speed 14 mph (SW)    
Max Wind Speed 22 mph    
Max Gust Speed 30 mph    
Visibility 10 miles    
Events Rain    
Averages and records for this station are not official NWS values.
T = Trace of Precipitation, MM = Missing Value Source: NWS Daily Summary

Daily Weather History Graph

Daily Weather History Graph

Search for Another Location

Airport:

Trip Planner

Search our weather history database for the weather conditions in past years. The results will help you decide how hot, cold, wet, or windy it might be!

Date:

Astronomy

Feb. 21, 2012 Rise Set
Actual Time 6:39 AM CST 5:39 PM CST
Civil Twilight 6:12 AM CST 6:06 PM CST
Nautical Twilight 5:41 AM CST 6:37 PM CST
Astronomical Twilight 5:11 AM CST 7:08 PM CST
Moon 6:08 AM CST (2/21) 5:45 PM CST (2/21)
Length of Visible Light 11h 53m
Length of Day
11h 00m
Waning Crescent, 0% of the Moon is Illuminated
Feb 21
Waning Crescent
Feb 21
New
Feb 29
First Quarter
Mar 8
Full
Mar 14
Last Quarter

Hourly Weather History & Observations

Time (CST) Temp. Windchill Dew Point Humidity Pressure Visibility Wind Dir Wind Speed Gust Speed Precip Events Conditions
12:15 AM 41.9 °F 35.0 °F 24.4 °F 50% 29.85 in 10.0 mi SE 12.7 mph - N/A   Overcast
12:35 AM 42.1 °F 36.6 °F 24.3 °F 49% 29.84 in 10.0 mi SE 9.2 mph 16.1 mph N/A   Overcast
12:55 AM 42.1 °F 37.1 °F 24.8 °F 50% 29.82 in 10.0 mi SSE 8.1 mph - N/A   Overcast
1:15 AM 42.3 °F 35.9 °F 25.7 °F 52% 29.78 in 10.0 mi SE 11.5 mph 17.3 mph N/A Rain Light Rain
1:35 AM 41.7 °F 35.6 °F 28.4 °F 59% 29.77 in 10.0 mi SSE 10.4 mph 20.7 mph N/A   Overcast
1:55 AM 41.9 °F 36.9 °F 28.0 °F 58% 29.74 in 10.0 mi SSE 8.1 mph - N/A   Mostly Cloudy
2:15 AM 42.8 °F 36.6 °F 28.2 °F 56% 29.74 in 10.0 mi South 11.5 mph 17.3 mph N/A   Scattered Clouds
2:35 AM 43.9 °F 36.2 °F 30.6 °F 59% 29.73 in 10.0 mi South 17.3 mph 25.3 mph N/A   Overcast
2:55 AM 44.1 °F 37.4 °F 31.8 °F 62% 29.71 in 10.0 mi South 13.8 mph 26.5 mph N/A   Mostly Cloudy
3:15 AM 43.9 °F 36.5 °F 32.4 °F 64% 29.72 in 10.0 mi South 16.1 mph 28.8 mph N/A   Mostly Cloudy
3:35 AM 43.9 °F 36.5 °F 32.9 °F 65% 29.71 in 10.0 mi South 16.1 mph 23.0 mph N/A   Overcast
3:55 AM 44.1 °F 37.1 °F 33.3 °F 66% 29.71 in 10.0 mi SSW 15.0 mph 24.2 mph N/A   Overcast
4:15 AM 43.9 °F 36.2 °F 33.8 °F 68% 29.70 in 10.0 mi South 17.3 mph 23.0 mph N/A   Overcast
4:35 AM 44.2 °F 36.7 °F 34.2 °F 68% 29.71 in 10.0 mi SW 17.3 mph 27.6 mph N/A   Overcast
4:55 AM 44.8 °F 36.4 °F 34.7 °F 68% 29.72 in 10.0 mi SW 21.9 mph 29.9 mph N/A   Overcast
5:15 AM 44.6 °F 37.2 °F 34.7 °F 68% 29.73 in 10.0 mi SW 17.3 mph 27.6 mph N/A   Overcast
5:35 AM 43.9 °F 35.7 °F 34.0 °F 68% 29.74 in 10.0 mi SW 19.6 mph 24.2 mph N/A   Mostly Cloudy
5:55 AM 44.6 °F 36.4 °F 34.3 °F 67% 29.75 in 10.0 mi SW 20.7 mph 26.5 mph N/A   Mostly Cloudy
6:15 AM 44.2 °F 37.0 °F 32.5 °F 63% 29.76 in 10.0 mi SW 16.1 mph 25.3 mph N/A   Overcast
6:35 AM 44.1 °F 36.5 °F 32.0 °F 63% 29.77 in 10.0 mi SW 17.3 mph 25.3 mph N/A   Overcast
6:55 AM 44.1 °F 37.1 °F 32.0 °F 63% 29.78 in 10.0 mi SW 15.0 mph - N/A   Overcast
7:15 AM 44.1 °F 36.5 °F 32.2 °F 63% 29.79 in 10.0 mi SW 17.3 mph 21.9 mph N/A   Overcast
7:35 AM 44.4 °F 36.4 °F 32.4 °F 63% 29.80 in 10.0 mi SW 19.6 mph 26.5 mph N/A   Overcast
7:55 AM 44.6 °F 36.9 °F 32.7 °F 63% 29.81 in 10.0 mi SW 18.4 mph 24.2 mph N/A   Overcast
8:15 AM 44.6 °F 37.2 °F 32.7 °F 63% 29.83 in 10.0 mi SW 17.3 mph 24.2 mph N/A   Overcast
8:35 AM 45.0 °F 38.5 °F 33.1 °F 63% 29.84 in 10.0 mi SW 13.8 mph 24.2 mph N/A   Overcast
8:55 AM 45.3 °F 38.4 °F 33.3 °F 63% 29.83 in 10.0 mi SW 16.1 mph 24.2 mph N/A   Overcast
9:15 AM 45.9 °F 38.0 °F 33.6 °F 62% 29.84 in 10.0 mi SW 20.7 mph 24.2 mph N/A   Overcast
9:35 AM 46.0 °F 39.0 °F 34.0 °F 63% 29.85 in 10.0 mi SW 17.3 mph 25.3 mph N/A   Overcast
9:55 AM 46.0 °F 39.6 °F 34.2 °F 63% 29.85 in 10.0 mi SW 15.0 mph 23.0 mph N/A   Overcast
10:15 AM 46.0 °F 39.3 °F 34.2 °F 63% 29.86 in 10.0 mi WSW 16.1 mph 20.7 mph N/A   Overcast
10:35 AM 46.4 °F 39.8 °F 34.9 °F 64% 29.86 in 10.0 mi SW 16.1 mph 20.7 mph N/A   Overcast
10:55 AM 46.6 °F - 35.1 °F 64% 29.87 in 10.0 mi SW 18.4 mph 24.2 mph N/A   Overcast
11:15 AM 46.4 °F 40.7 °F 35.1 °F 65% 29.88 in 10.0 mi SW 12.7 mph 19.6 mph N/A   Overcast
11:35 AM 46.6 °F - 35.2 °F 65% 29.88 in 10.0 mi SW 15.0 mph 19.6 mph N/A   Overcast
11:55 AM 46.4 °F 40.1 °F 35.2 °F 65% 29.88 in 10.0 mi SW 15.0 mph 25.3 mph N/A   Overcast
12:15 PM 46.6 °F - 35.6 °F 66% 29.88 in 10.0 mi SW 18.4 mph 27.6 mph N/A   Overcast
12:35 PM 46.4 °F 39.8 °F 35.6 °F 66% 29.88 in 10.0 mi WSW 16.1 mph 24.2 mph N/A   Overcast
12:55 PM 45.9 °F 38.8 °F 35.2 °F 66% 29.88 in 10.0 mi WSW 17.3 mph 23.0 mph N/A   Overcast
1:15 PM 45.9 °F 39.1 °F 35.1 °F 66% 29.88 in 10.0 mi WSW 16.1 mph 25.3 mph N/A   Overcast
1:35 PM 46.2 °F 40.5 °F 35.4 °F 66% 29.87 in 10.0 mi WSW 12.7 mph - N/A   Overcast
1:55 PM 46.9 °F - 35.2 °F 64% 29.87 in 10.0 mi SW 18.4 mph 21.9 mph N/A   Overcast
2:15 PM 50.0 °F - 35.6 °F 58% 29.86 in 10.0 mi SW 17.3 mph 24.2 mph N/A   Mostly Cloudy
2:35 PM 48.9 °F - 34.0 °F 56% 29.86 in 10.0 mi SW 19.6 mph 26.5 mph N/A   Scattered Clouds
2:55 PM 49.1 °F - 33.6 °F 55% 29.86 in 10.0 mi WSW 18.4 mph 24.2 mph N/A   Clear
3:15 PM 49.3 °F - 32.0 °F 51% 29.87 in 10.0 mi SW 13.8 mph 18.4 mph N/A   Clear
3:35 PM 49.6 °F - 32.0 °F 51% 29.86 in 10.0 mi WSW 16.1 mph - N/A   Clear
3:55 PM 49.1 °F - 31.8 °F 51% 29.88 in 10.0 mi WSW 16.1 mph - N/A   Clear
4:15 PM 49.1 °F - 31.6 °F 51% 29.88 in 10.0 mi SW 13.8 mph 21.9 mph N/A   Clear
4:35 PM 49.1 °F - 31.1 °F 50% 29.89 in 10.0 mi WSW 11.5 mph - N/A   Clear
4:55 PM 49.1 °F - 31.5 °F 51% 29.89 in 10.0 mi SW 9.2 mph - N/A   Clear
5:15 PM 48.2 °F - 30.2 °F 50% 29.88 in 10.0 mi SW 8.1 mph - N/A   Clear
5:35 PM 47.7 °F - 30.9 °F 52% 29.88 in 10.0 mi SW 6.9 mph - N/A   Scattered Clouds
5:55 PM 45.5 °F 42.5 °F 31.3 °F 58% 29.88 in 10.0 mi SSW 5.8 mph - N/A   Scattered Clouds
6:15 PM 45.3 °F 43.0 °F 29.7 °F 54% 29.88 in 10.0 mi SSW 4.6 mph - N/A   Scattered Clouds
6:35 PM 45.5 °F 43.2 °F 29.1 °F 53% 29.89 in 10.0 mi SSW 4.6 mph - N/A   Clear
6:55 PM 44.6 °F 42.2 °F 28.4 °F 53% 29.89 in 10.0 mi SSW 4.6 mph - N/A   Clear
7:15 PM 43.0 °F 38.8 °F 29.1 °F 58% 29.89 in 10.0 mi South 6.9 mph - N/A   Clear
7:35 PM 42.8 °F 38.6 °F 30.2 °F 61% 29.88 in 10.0 mi SSW 6.9 mph - N/A   Clear
7:55 PM 42.8 °F 40.1 °F 28.4 °F 57% 29.88 in 10.0 mi SSW 4.6 mph - N/A   Clear
8:15 PM 42.6 °F 39.9 °F 28.4 °F 57% 29.87 in 10.0 mi South 4.6 mph - N/A   Clear
8:35 PM 41.0 °F 39.0 °F 28.4 °F 61% 29.88 in 10.0 mi South 3.5 mph - N/A   Clear
8:55 PM 39.7 °F - 28.4 °F 64% 29.87 in 10.0 mi Calm Calm - N/A   Clear
9:15 PM 38.7 °F 33.6 °F 27.9 °F 65% 29.87 in 10.0 mi South 6.9 mph - N/A   Clear
9:35 PM 41.2 °F 36.6 °F 27.3 °F 58% 29.87 in 10.0 mi South 6.9 mph - N/A   Clear
9:55 PM 41.0 °F 37.1 °F 26.6 °F 57% 29.87 in 10.0 mi South 5.8 mph - N/A   Clear
10:15 PM 39.7 °F 36.5 °F 26.8 °F 60% 29.86 in 10.0 mi South 4.6 mph - N/A   Clear
10:35 PM 39.6 °F 35.4 °F 26.6 °F 60% 29.85 in 10.0 mi South 5.8 mph - N/A   Clear
10:55 PM 39.6 °F 35.4 °F 26.4 °F 59% 29.85 in 10.0 mi South 5.8 mph - N/A   Clear
11:15 PM 38.7 °F 33.6 °F 26.2 °F 61% 29.84 in 10.0 mi SSW 6.9 mph - N/A   Clear
11:35 PM 39.0 °F 34.8 °F 25.9 °F 59% 29.82 in 10.0 mi SSW 5.8 mph - N/A   Clear
11:55 PM 40.3 °F 35.5 °F 25.5 °F 56% 29.82 in 10.0 mi South 6.9 mph - N/A   Clear